createdAt,value
2024-04-09T00:01:03.102Z,0.60
2024-04-09T00:03:30.817Z,0.67
2024-04-09T00:06:09.465Z,0.53
2024-04-09T00:08:37.033Z,0.90
2024-04-09T00:11:08.466Z,0.60
2024-04-09T00:13:37.495Z,0.30
2024-04-09T00:16:13.715Z,0.40
2024-04-09T00:18:40.898Z,0.43
2024-04-09T00:21:13.534Z,0.50
2024-04-09T00:23:41.047Z,0.60
2024-04-09T00:26:11.051Z,0.50
2024-04-09T00:28:38.074Z,1.50
2024-04-09T00:31:08.372Z,0.90
2024-04-09T00:33:35.695Z,0.70
2024-04-09T00:36:05.685Z,0.70
2024-04-09T00:38:35.337Z,0.70
2024-04-09T00:41:06.855Z,0.67
2024-04-09T00:43:33.949Z,0.90
2024-04-09T00:46:04.124Z,0.80
2024-04-09T00:48:31.321Z,0.93
2024-04-09T00:51:01.723Z,0.70
2024-04-09T00:53:28.988Z,1.07
2024-04-09T00:56:02.962Z,0.90
2024-04-09T00:58:30.532Z,0.60
2024-04-09T01:01:01.454Z,0.80
2024-04-09T01:03:29.475Z,0.70
2024-04-09T01:05:59.393Z,0.80
2024-04-09T01:08:26.442Z,0.70
2024-04-09T01:10:56.332Z,0.90
2024-04-09T01:13:26.150Z,0.67
2024-04-09T01:15:55.950Z,0.63
2024-04-09T01:18:23.536Z,0.80
2024-04-09T01:20:53.181Z,0.77
2024-04-09T01:23:22.975Z,0.70
2024-04-09T01:25:53.064Z,0.90
2024-04-09T01:28:20.078Z,0.97
2024-04-09T01:30:52.508Z,1.03
2024-04-09T01:33:19.847Z,0.80
2024-04-09T01:35:49.642Z,0.80
2024-04-09T01:38:16.607Z,0.70
2024-04-09T01:40:49.117Z,0.90
2024-04-09T01:43:16.498Z,1.10
2024-04-09T01:45:46.181Z,1.10
2024-04-09T01:48:13.309Z,0.90
2024-04-09T01:50:43.263Z,1.13
2024-04-09T01:53:10.219Z,1.27
2024-04-09T01:55:40.279Z,0.87
2024-04-09T01:58:10.056Z,1.50
2024-04-09T02:00:39.938Z,1.47
2024-04-09T02:03:09.425Z,1.10
2024-04-09T02:05:40.626Z,1.00
2024-04-09T02:08:07.628Z,1.20
2024-04-09T02:10:38.190Z,1.00
2024-04-09T02:13:05.259Z,1.03
2024-04-09T02:15:37.781Z,1.53
2024-04-09T02:18:05.351Z,1.27
2024-04-09T02:20:35.159Z,1.47
2024-04-09T02:23:02.251Z,1.37
2024-04-09T02:25:31.863Z,1.50
2024-04-09T02:27:59.485Z,1.50
2024-04-09T02:30:30.027Z,1.47
2024-04-09T02:32:59.894Z,2.10
2024-04-09T02:35:30.294Z,1.53
2024-04-09T02:37:57.342Z,1.60
2024-04-09T02:40:27.012Z,1.03
2024-04-09T02:42:57.564Z,1.40
2024-04-09T02:45:27.939Z,1.13
2024-04-09T02:47:55.049Z,0.93
2024-04-09T02:50:27.496Z,1.00
2024-04-09T02:52:55.041Z,1.10
2024-04-09T02:55:24.749Z,1.00
2024-04-09T02:57:51.768Z,1.37
2024-04-09T03:00:24.028Z,1.20
2024-04-09T03:02:52.151Z,1.50
2024-04-09T03:05:22.134Z,1.00
2024-04-09T03:07:53.663Z,0.93
2024-04-09T03:10:23.284Z,1.13
2024-04-09T03:12:50.368Z,1.10
2024-04-09T03:15:20.471Z,1.03
2024-04-09T03:17:47.588Z,1.20
2024-04-09T03:20:17.275Z,1.00
2024-04-09T03:22:44.880Z,0.93
2024-04-09T03:25:17.203Z,0.70
2024-04-09T03:27:44.281Z,0.80
2024-04-09T03:30:14.379Z,0.70
2024-04-09T03:32:41.433Z,0.93
2024-04-09T03:35:11.420Z,1.10
2024-04-09T03:37:41.398Z,1.20
2024-04-09T03:40:11.638Z,1.10
2024-04-09T03:42:44.079Z,0.97
2024-04-09T03:45:12.901Z,0.97
2024-04-09T03:47:42.733Z,0.90
2024-04-09T03:50:10.180Z,1.20
2024-04-09T03:52:39.872Z,1.10
2024-04-09T03:55:07.312Z,1.33
2024-04-09T03:57:38.071Z,1.50
2024-04-09T04:00:13.245Z,1.10
2024-04-09T04:02:43.774Z,1.17
2024-04-09T04:05:11.833Z,1.23
2024-04-09T04:07:41.751Z,1.20
2024-04-09T04:10:11.828Z,1.17
2024-04-09T04:12:42.520Z,1.13
2024-04-09T04:15:13.004Z,0.80
2024-04-09T04:17:42.765Z,1.60
2024-04-09T04:20:10.878Z,1.43
2024-04-09T04:22:40.991Z,1.20
2024-04-09T04:25:08.224Z,1.03
2024-04-09T04:27:38.331Z,0.90
2024-04-09T04:30:06.759Z,0.90
2024-04-09T04:32:39.247Z,1.23
2024-04-09T04:35:07.084Z,1.00
2024-04-09T04:37:37.065Z,1.17
2024-04-09T04:40:05.236Z,1.47
2024-04-09T04:42:36.101Z,1.10
2024-04-09T04:45:03.479Z,1.53
2024-04-09T04:47:33.150Z,0.83
2024-04-09T04:50:02.863Z,1.03
2024-04-09T04:52:32.769Z,1.23
2024-04-09T04:54:59.804Z,1.10
2024-04-09T04:57:29.491Z,1.40
2024-04-09T04:59:58.134Z,0.97
2024-04-09T05:02:29.337Z,1.23
2024-04-09T05:04:56.507Z,1.17
2024-04-09T05:07:29.043Z,1.10
2024-04-09T05:09:56.214Z,1.10
2024-04-09T05:12:25.972Z,0.87
2024-04-09T05:14:53.331Z,1.17
2024-04-09T05:17:23.144Z,1.23
2024-04-09T05:19:52.186Z,1.10
2024-04-09T05:22:25.928Z,1.70
2024-04-09T05:24:55.562Z,1.33
2024-04-09T05:27:25.387Z,1.10
2024-04-09T05:29:52.556Z,1.17
2024-04-09T05:32:22.439Z,1.40
2024-04-09T05:34:49.848Z,1.17
2024-04-09T05:37:19.996Z,1.30
2024-04-09T05:39:48.067Z,1.23
2024-04-09T05:42:20.669Z,1.57
2024-04-09T05:44:48.993Z,1.50
2024-04-09T05:47:18.708Z,1.00
2024-04-09T05:49:46.259Z,1.30
2024-04-09T05:52:16.075Z,0.90
2024-04-09T05:54:45.544Z,1.17
2024-04-09T05:57:16.207Z,1.00
2024-04-09T05:59:45.890Z,0.90
2024-04-09T06:02:15.649Z,1.13
2024-04-09T06:04:42.789Z,1.60
2024-04-09T06:07:12.593Z,1.00
2024-04-09T06:09:40.388Z,1.20
2024-04-09T06:12:10.845Z,1.00
2024-04-09T06:14:37.981Z,1.30
2024-04-09T06:17:11.609Z,0.97
2024-04-09T06:19:38.864Z,1.10
2024-04-09T06:22:08.699Z,0.73
2024-04-09T06:24:35.913Z,0.77
2024-04-09T06:27:06.916Z,1.00
2024-04-09T06:29:34.176Z,1.00
2024-04-09T06:32:05.981Z,0.90
2024-04-09T06:34:35.924Z,1.10
2024-04-09T06:37:08.202Z,0.90
2024-04-09T06:39:35.336Z,1.00
2024-04-09T06:42:06.359Z,0.87
2024-04-09T06:44:34.116Z,0.80
2024-04-09T06:47:04.262Z,0.90
2024-04-09T06:49:32.204Z,1.13
2024-04-09T06:52:04.749Z,1.27
2024-04-09T06:54:31.927Z,1.00
2024-04-09T06:57:01.995Z,0.83
2024-04-09T06:59:29.246Z,1.00
2024-04-09T07:01:58.927Z,1.00
2024-04-09T07:04:26.055Z,1.27
2024-04-09T07:06:55.798Z,0.70
2024-04-09T07:09:25.525Z,0.60
2024-04-09T07:11:55.275Z,0.67
2024-04-09T07:14:23.389Z,0.93
2024-04-09T07:16:53.941Z,0.53
2024-04-09T07:19:21.113Z,0.60
2024-04-09T07:21:51.149Z,0.50
2024-04-09T07:24:18.250Z,0.60
2024-04-09T07:26:50.715Z,0.60
2024-04-09T07:29:20.151Z,0.90
2024-04-09T07:31:50.274Z,0.53
2024-04-09T07:34:17.339Z,0.50
2024-04-09T07:36:48.984Z,0.70
2024-04-09T07:39:16.518Z,0.53
2024-04-09T07:41:46.418Z,0.73
2024-04-09T07:44:16.160Z,0.77
2024-04-09T07:46:49.827Z,0.57
2024-04-09T07:49:17.401Z,0.60
2024-04-09T07:51:47.851Z,0.60
2024-04-09T07:54:15.101Z,0.70
2024-04-09T07:56:44.884Z,0.60
2024-04-09T07:59:12.419Z,0.83
2024-04-09T08:01:44.835Z,0.90
2024-04-09T08:04:12.215Z,0.60
2024-04-09T08:06:42.235Z,1.00
2024-04-09T08:09:12.779Z,0.80
2024-04-09T08:11:43.964Z,0.90
2024-04-09T08:14:11.267Z,0.63
2024-04-09T08:16:41.419Z,0.67
2024-04-09T08:19:11.404Z,0.90
2024-04-09T08:21:41.524Z,0.70
2024-04-09T08:24:09.580Z,1.00
2024-04-09T08:26:39.250Z,0.90
2024-04-09T08:29:07.725Z,0.80
2024-04-09T08:31:37.491Z,0.80
2024-04-09T08:34:07.865Z,0.60
2024-04-09T08:36:39.084Z,0.70
2024-04-09T08:39:09.330Z,0.93
2024-04-09T08:41:37.283Z,0.90
2024-04-09T08:44:08.096Z,0.70
2024-04-09T08:46:37.521Z,0.77
2024-04-09T08:49:08.498Z,0.70
2024-04-09T08:51:40.074Z,0.90
2024-04-09T08:54:10.042Z,0.77
2024-04-09T08:56:37.160Z,0.80
2024-04-09T08:59:07.278Z,0.83
2024-04-09T09:01:34.621Z,0.80
2024-04-09T09:04:05.561Z,0.70
2024-04-09T09:06:46.233Z,0.73
2024-04-09T09:09:25.565Z,0.77
2024-04-09T09:11:54.130Z,0.77
2024-04-09T09:14:23.894Z,0.77
2024-04-09T09:16:51.236Z,0.70
2024-04-09T09:19:21.392Z,0.60
2024-04-09T09:21:51.426Z,0.50
2024-04-09T09:24:21.374Z,0.60
2024-04-09T09:26:52.968Z,0.90
2024-04-09T09:29:22.582Z,0.73
2024-04-09T09:31:49.887Z,0.70
2024-04-09T09:34:21.597Z,0.80
2024-04-09T09:36:56.787Z,0.50
2024-04-09T09:39:27.831Z,0.93
2024-04-09T09:41:56.842Z,0.90
2024-04-09T09:44:27.231Z,0.60
2024-04-09T09:46:55.466Z,0.80
2024-04-09T09:49:27.175Z,0.70
2024-04-09T09:51:57.486Z,0.30
2024-04-09T09:54:28.693Z,0.60
2024-04-09T09:57:01.471Z,0.77
2024-04-09T09:59:35.993Z,0.90
2024-04-09T10:02:05.320Z,1.07
2024-04-09T10:04:35.540Z,0.70
2024-04-09T10:07:06.361Z,0.70
2024-04-09T10:09:45.816Z,0.80
2024-04-09T10:12:24.143Z,0.60
2024-04-09T10:15:00.704Z,0.80
2024-04-09T10:17:52.619Z,0.60
2024-04-09T10:20:24.435Z,0.90
2024-04-09T10:22:56.472Z,0.70
2024-04-09T10:25:27.426Z,0.60
2024-04-09T10:28:05.155Z,0.60
2024-04-09T10:30:38.905Z,0.80
2024-04-09T10:33:07.974Z,0.80
2024-04-09T10:35:38.508Z,0.50
2024-04-09T10:38:09.163Z,0.70
2024-04-09T10:40:38.830Z,0.80
2024-04-09T10:43:09.291Z,0.60
2024-04-09T10:45:51.613Z,0.50
2024-04-09T10:48:23.458Z,0.60
2024-04-09T10:50:53.942Z,0.63
2024-04-09T10:53:23.652Z,0.53
2024-04-09T10:55:53.555Z,0.60
2024-04-09T10:58:20.867Z,0.53
2024-04-09T11:00:56.258Z,0.77
2024-04-09T11:03:24.756Z,0.60
2024-04-09T11:05:55.119Z,0.50
2024-04-09T11:08:30.864Z,0.80
2024-04-09T11:11:02.697Z,0.60
2024-04-09T11:13:31.515Z,0.50
2024-04-09T11:16:02.993Z,0.40
2024-04-09T11:18:30.509Z,0.73
2024-04-09T11:21:02.483Z,0.87
2024-04-09T11:23:33.627Z,0.67
2024-04-09T11:26:04.876Z,0.60
2024-04-09T11:28:34.773Z,0.50
2024-04-09T11:31:02.023Z,0.50
2024-04-09T11:33:32.618Z,0.60
2024-04-09T11:36:07.435Z,0.50
2024-04-09T11:38:43.083Z,0.40
2024-04-09T11:41:10.339Z,0.90
2024-04-09T11:43:40.009Z,0.93
2024-04-09T11:46:07.340Z,0.80
2024-04-09T11:48:37.192Z,0.77
2024-04-09T11:51:05.744Z,0.67
2024-04-09T11:53:35.907Z,0.97
2024-04-09T11:56:05.736Z,0.90
2024-04-09T11:58:35.513Z,0.70
2024-04-09T12:01:04.084Z,0.63
2024-04-09T12:03:34.219Z,0.67
2024-04-09T12:06:03.075Z,1.03
2024-04-09T12:08:33.376Z,0.60
2024-04-09T12:11:01.678Z,0.70
2024-04-09T12:13:34.005Z,0.70
2024-04-09T12:16:01.199Z,0.60
2024-04-09T12:18:32.813Z,0.67
2024-04-09T12:21:00.238Z,0.87
2024-04-09T12:23:30.145Z,0.60
2024-04-09T12:25:58.420Z,0.60
2024-04-09T12:28:28.482Z,0.70
2024-04-09T12:30:59.454Z,0.67
2024-04-09T12:33:30.798Z,0.50
2024-04-09T12:35:58.102Z,0.53
2024-04-09T12:38:41.289Z,0.77
2024-04-09T12:41:08.310Z,1.23
2024-04-09T12:43:38.683Z,0.77
2024-04-09T12:46:08.803Z,0.63
2024-04-09T12:48:38.723Z,0.50
2024-04-09T12:51:06.199Z,0.90
2024-04-09T12:53:35.826Z,0.90
2024-04-09T12:56:02.944Z,0.60
2024-04-09T12:58:36.394Z,0.70
2024-04-09T13:01:09.515Z,0.73
2024-04-09T13:03:40.944Z,0.57
2024-04-09T13:06:08.749Z,0.90
2024-04-09T13:08:38.923Z,0.73
2024-04-09T13:19:20.475Z,0.60
2024-04-09T13:21:47.937Z,0.70
2024-04-09T13:24:17.866Z,0.70
2024-04-09T13:26:45.583Z,0.90
2024-04-09T13:29:15.367Z,0.70
2024-04-09T13:31:42.490Z,0.80
2024-04-09T13:34:12.655Z,1.00
2024-04-09T13:36:42.526Z,1.10
2024-04-09T13:39:12.761Z,0.90
2024-04-09T13:41:39.797Z,1.10
2024-04-09T13:44:10.125Z,1.20
2024-04-09T13:46:37.266Z,0.83
2024-04-09T13:49:07.651Z,0.70
2024-04-09T13:51:34.925Z,1.10
2024-04-09T13:54:07.650Z,1.10
2024-04-09T13:56:35.203Z,0.77
2024-04-09T13:59:06.436Z,1.20
2024-04-09T14:01:34.023Z,1.07
2024-04-09T14:04:06.201Z,1.00
2024-04-09T14:06:33.863Z,0.90
2024-04-09T14:09:03.464Z,1.10
2024-04-09T14:11:35.878Z,1.10
2024-04-09T14:14:03.519Z,0.80
2024-04-09T14:16:33.812Z,0.90
2024-04-09T14:19:01.476Z,1.10
2024-04-09T14:21:32.510Z,0.87
2024-04-09T14:23:59.674Z,1.00
2024-04-09T14:26:29.856Z,1.00
2024-04-09T14:28:59.885Z,0.80
2024-04-09T14:31:29.523Z,0.50
2024-04-09T14:33:56.578Z,0.70
2024-04-09T14:36:26.376Z,1.03
2024-04-09T14:38:53.490Z,0.73
2024-04-09T14:41:23.347Z,0.73
2024-04-09T14:43:50.928Z,0.60
2024-04-09T14:46:23.260Z,0.40
2024-04-09T14:48:52.825Z,0.60
2024-04-09T14:51:24.108Z,0.83
2024-04-09T14:53:51.113Z,0.50
2024-04-09T14:56:21.081Z,0.63
2024-04-09T14:58:48.173Z,0.60
2024-04-09T15:01:17.919Z,0.60
2024-04-09T15:03:48.204Z,0.67
2024-04-09T15:06:18.107Z,0.60
2024-04-09T15:08:45.158Z,0.87
2024-04-09T15:11:19.930Z,0.70
2024-04-09T15:13:47.201Z,0.77
2024-04-09T15:16:17.138Z,0.80
2024-04-09T15:18:44.654Z,0.90
2024-04-09T15:21:17.292Z,0.70
2024-04-09T15:23:45.561Z,0.80
2024-04-09T15:26:15.389Z,1.03
2024-04-09T15:28:42.463Z,0.83
2024-04-09T15:31:14.873Z,0.73
2024-04-09T15:33:42.313Z,0.70
2024-04-09T15:36:13.000Z,0.93
2024-04-09T15:38:42.878Z,0.87
2024-04-09T15:41:12.596Z,0.80
2024-04-09T15:43:40.048Z,1.07
2024-04-09T15:46:09.896Z,0.90
2024-04-09T15:48:37.142Z,0.70
2024-04-09T15:51:08.522Z,0.90
2024-04-09T15:53:35.554Z,1.00
2024-04-09T15:56:09.244Z,0.90
2024-04-09T15:58:36.758Z,0.77
2024-04-09T16:01:06.728Z,0.80
2024-04-09T16:03:33.888Z,0.90
2024-04-09T16:06:03.685Z,1.00
2024-04-09T16:08:33.088Z,1.00
2024-04-09T16:11:05.351Z,0.93
2024-04-09T16:13:35.252Z,1.20
2024-04-09T16:16:09.573Z,1.23
2024-04-09T16:18:36.910Z,1.10
2024-04-09T16:21:08.042Z,1.50
2024-04-09T16:23:35.770Z,1.40
2024-04-09T16:26:09.463Z,1.70
2024-04-09T16:28:39.545Z,1.53
2024-04-09T16:31:10.081Z,1.30
2024-04-09T16:33:37.799Z,1.60
2024-04-09T16:36:09.591Z,1.80
2024-04-09T16:38:39.859Z,1.90
2024-04-09T16:41:10.915Z,1.10
2024-04-09T16:43:43.100Z,1.90
2024-04-09T16:46:13.575Z,1.60
2024-04-09T16:48:40.757Z,1.40
2024-04-09T16:51:10.425Z,1.57
2024-04-09T16:53:37.885Z,1.43
2024-04-09T16:56:07.803Z,1.43
2024-04-09T16:58:34.858Z,1.37
2024-04-09T17:01:07.931Z,1.63
2024-04-09T17:03:35.455Z,1.20
2024-04-09T17:06:05.827Z,1.60
2024-04-09T17:08:33.884Z,1.10
2024-04-09T17:11:04.242Z,1.50
2024-04-09T17:13:31.693Z,1.23
2024-04-09T17:16:01.985Z,1.43
2024-04-09T17:18:32.020Z,1.00
2024-04-09T17:21:02.108Z,1.27
2024-04-09T17:23:30.977Z,1.63
2024-04-09T17:26:04.529Z,1.10
2024-04-09T17:28:32.283Z,1.57
2024-04-09T17:31:01.980Z,1.50
2024-04-09T17:33:31.758Z,1.40
2024-04-09T17:36:02.620Z,1.47
2024-04-09T17:38:30.601Z,1.70
2024-04-09T17:41:00.402Z,1.83
2024-04-09T17:43:27.561Z,1.50
2024-04-09T17:46:01.710Z,1.57
2024-04-09T17:48:31.845Z,1.50
2024-04-09T17:51:01.532Z,1.70
2024-04-09T17:53:29.321Z,1.20
2024-04-09T17:55:59.692Z,1.73
2024-04-09T17:58:26.885Z,1.07
2024-04-09T18:00:56.987Z,1.40
2024-04-09T18:03:24.437Z,1.40
2024-04-09T18:06:07.244Z,1.83
2024-04-09T18:08:34.608Z,1.37
2024-04-09T18:11:05.555Z,1.47
2024-04-09T18:13:34.497Z,1.47
2024-04-09T18:16:06.733Z,1.60
2024-04-09T18:18:34.413Z,2.07
2024-04-09T18:21:07.695Z,1.77
2024-04-09T18:23:34.929Z,1.30
2024-04-09T18:26:06.652Z,2.20
2024-04-09T18:28:34.043Z,1.93
2024-04-09T18:31:05.580Z,2.30
2024-04-09T18:33:32.804Z,1.80
2024-04-09T18:36:09.350Z,2.00
2024-04-09T18:38:37.145Z,2.33
2024-04-09T18:41:07.840Z,1.83
2024-04-09T18:43:37.002Z,1.97
2024-04-09T18:46:07.818Z,2.10
2024-04-09T18:48:35.153Z,2.10
2024-04-09T18:51:12.116Z,1.83
2024-04-09T18:53:39.184Z,2.60
2024-04-09T18:56:09.173Z,2.20
2024-04-09T18:58:36.738Z,2.10
2024-04-09T19:01:06.739Z,2.67
2024-04-09T19:03:34.679Z,1.87
2024-04-09T19:06:07.889Z,2.03
2024-04-09T19:08:35.060Z,2.17
2024-04-09T19:11:10.016Z,1.70
2024-04-09T19:13:40.695Z,1.87
2024-04-09T19:16:10.978Z,1.70
2024-04-09T19:18:38.373Z,1.80
2024-04-09T19:21:12.562Z,1.83
2024-04-09T19:23:39.823Z,1.73
2024-04-09T19:26:10.747Z,1.83
2024-04-09T19:28:38.156Z,1.60
2024-04-09T19:31:07.836Z,1.93
2024-04-09T19:33:36.305Z,1.67
2024-04-09T19:36:06.784Z,2.30
2024-04-09T19:38:36.751Z,1.70
2024-04-09T19:41:08.210Z,1.60
2024-04-09T19:43:42.923Z,2.03
2024-04-09T19:46:15.134Z,1.80
2024-04-09T19:48:42.580Z,1.40
2024-04-09T19:51:12.379Z,1.57
2024-04-09T19:53:52.114Z,1.93
2024-04-09T19:56:24.031Z,1.50
2024-04-09T19:58:51.505Z,2.00
2024-04-09T20:01:21.777Z,2.03
2024-04-09T20:03:49.475Z,2.33
2024-04-09T20:06:19.311Z,1.90
2024-04-09T20:08:52.005Z,1.60
2024-04-09T20:11:22.621Z,1.90
2024-04-09T20:13:51.819Z,2.07
2024-04-09T20:16:21.790Z,1.80
2024-04-09T20:18:49.167Z,2.13
2024-04-09T20:21:19.015Z,1.40
2024-04-09T20:23:49.811Z,1.77
2024-04-09T20:26:20.375Z,1.30
2024-04-09T20:28:49.024Z,1.60
2024-04-09T20:31:18.995Z,1.60
2024-04-09T20:33:46.269Z,1.63
2024-04-09T20:36:16.164Z,1.30
2024-04-09T20:38:43.283Z,2.00
2024-04-09T20:41:15.580Z,1.37
2024-04-09T20:43:42.903Z,1.43
2024-04-09T20:46:12.940Z,1.50
2024-04-09T20:48:40.353Z,1.50
2024-04-09T20:51:10.243Z,1.63
2024-04-09T20:53:37.627Z,1.30
2024-04-09T20:56:08.113Z,1.60
2024-04-09T20:58:38.017Z,1.60
2024-04-09T21:01:08.767Z,1.50
2024-04-09T21:03:35.962Z,1.50
2024-04-09T21:06:05.883Z,1.30
2024-04-09T21:08:33.285Z,1.93
2024-04-09T21:13:57.755Z,1.70
2024-04-09T21:16:24.762Z,1.57
2024-04-09T21:18:54.739Z,1.63
2024-04-09T21:21:21.960Z,1.73
2024-04-09T21:23:51.982Z,1.53
2024-04-09T21:26:19.147Z,1.30
2024-04-09T21:28:49.246Z,1.63
2024-04-09T21:31:18.822Z,1.43
2024-04-09T21:33:48.564Z,1.60
2024-04-09T21:36:15.822Z,1.33
2024-04-09T21:38:45.581Z,1.40
2024-04-09T21:41:12.638Z,1.60
2024-04-09T21:43:42.385Z,1.30
2024-04-09T21:46:09.453Z,2.20
2024-04-09T21:48:42.300Z,1.43
2024-04-09T21:51:10.435Z,1.30
2024-04-09T21:53:41.279Z,1.43
2024-04-09T21:56:08.383Z,1.50
2024-04-09T21:58:38.146Z,1.57
2024-04-09T22:01:05.252Z,1.40
2024-04-09T22:03:35.438Z,1.10
2024-04-09T22:06:05.680Z,1.17
2024-04-09T22:08:35.306Z,1.40
2024-04-09T22:11:02.388Z,1.60
2024-04-09T22:13:32.074Z,1.63
2024-04-09T22:15:59.053Z,1.57
2024-04-09T22:18:29.442Z,1.53
2024-04-09T22:20:56.765Z,1.77
2024-04-09T22:23:29.125Z,1.63
2024-04-09T22:25:56.499Z,1.40
2024-04-09T22:28:26.824Z,1.40
2024-04-09T22:30:53.966Z,1.40
2024-04-09T22:33:23.755Z,1.77
2024-04-09T22:35:55.279Z,1.70
2024-04-09T22:38:25.328Z,1.53
2024-04-09T22:40:55.850Z,1.63
2024-04-09T22:43:25.607Z,1.60
2024-04-09T22:45:59.443Z,1.17
2024-04-09T22:48:29.157Z,1.37
2024-04-09T22:50:56.772Z,1.80
2024-04-09T22:53:27.146Z,1.70
2024-04-09T22:55:58.298Z,1.70
2024-04-09T22:58:28.474Z,1.60
2024-04-09T23:01:02.785Z,1.53
2024-04-09T23:03:33.336Z,1.40
2024-04-09T23:06:01.067Z,1.90
2024-04-09T23:08:31.320Z,1.70
2024-04-09T23:11:06.312Z,1.60
2024-04-09T23:13:36.878Z,1.60
2024-04-09T23:16:05.798Z,1.53
2024-04-09T23:18:36.976Z,2.10
2024-04-09T23:21:06.680Z,1.80
2024-04-09T23:23:36.816Z,1.97
2024-04-09T23:26:06.888Z,2.10
2024-04-09T23:28:37.557Z,1.77
2024-04-09T23:31:05.619Z,2.17
2024-04-09T23:33:35.724Z,1.90
2024-04-09T23:36:05.184Z,1.80
2024-04-09T23:38:36.411Z,2.03
2024-04-09T23:41:03.720Z,2.20
2024-04-09T23:43:36.088Z,1.93
2024-04-09T23:46:04.348Z,1.77
2024-04-09T23:48:34.955Z,2.23
2024-04-09T23:51:03.089Z,2.47
2024-04-09T23:53:33.492Z,1.87
2024-04-09T23:56:01.967Z,1.67
2024-04-09T23:58:31.909Z,1.67
